sensor_id;sensor_type;location;lat;lon;timestamp;temperature;humidity
18281;DHT22;9266;51.132;17.062;2023-05-07T00:01:37;8.50;99.90
18281;DHT22;9266;51.132;17.062;2023-05-07T00:04:04;8.50;99.90
18281;DHT22;9266;51.132;17.062;2023-05-07T00:06:32;8.50;99.90
18281;DHT22;9266;51.132;17.062;2023-05-07T00:08:59;8.50;99.90
18281;DHT22;9266;51.132;17.062;2023-05-07T00:11:28;8.50;99.90
18281;DHT22;9266;51.132;17.062;2023-05-07T00:13:55;8.50;99.90
18281;DHT22;9266;51.132;17.062;2023-05-07T00:16:22;8.50;99.90
18281;DHT22;9266;51.132;17.062;2023-05-07T00:18:49;8.50;99.90
18281;DHT22;9266;51.132;17.062;2023-05-07T00:21:16;8.50;99.90
18281;DHT22;9266;51.132;17.062;2023-05-07T00:23:43;8.50;99.90
18281;DHT22;9266;51.132;17.062;2023-05-07T00:26:10;8.40;99.90
18281;DHT22;9266;51.132;17.062;2023-05-07T00:28:39;8.40;99.90
18281;DHT22;9266;51.132;17.062;2023-05-07T00:31:06;8.40;99.90
18281;DHT22;9266;51.132;17.062;2023-05-07T00:33:33;8.40;99.90
18281;DHT22;9266;51.132;17.062;2023-05-07T00:36:00;8.40;99.90
18281;DHT22;9266;51.132;17.062;2023-05-07T00:38:27;8.40;99.90
18281;DHT22;9266;51.132;17.062;2023-05-07T00:40:54;8.40;99.90
18281;DHT22;9266;51.132;17.062;2023-05-07T00:43:21;8.40;99.90
18281;DHT22;9266;51.132;17.062;2023-05-07T00:45:50;8.40;99.90
18281;DHT22;9266;51.132;17.062;2023-05-07T00:48:17;8.40;99.90
18281;DHT22;9266;51.132;17.062;2023-05-07T00:50:45;8.40;99.90
18281;DHT22;9266;51.132;17.062;2023-05-07T00:53:13;8.40;99.90
18281;DHT22;9266;51.132;17.062;2023-05-07T00:55:40;8.40;99.90
18281;DHT22;9266;51.132;17.062;2023-05-07T00:58:07;8.50;99.90
18281;DHT22;9266;51.132;17.062;2023-05-07T01:00:34;8.50;99.90
18281;DHT22;9266;51.132;17.062;2023-05-07T01:03:02;8.40;99.90
18281;DHT22;9266;51.132;17.062;2023-05-07T01:05:29;8.50;99.90
18281;DHT22;9266;51.132;17.062;2023-05-07T01:07:57;8.40;99.90
18281;DHT22;9266;51.132;17.062;2023-05-07T01:10:25;8.40;99.90
18281;DHT22;9266;51.132;17.062;2023-05-07T01:12:52;8.50;99.90
18281;DHT22;9266;51.132;17.062;2023-05-07T01:15:20;8.40;99.90
18281;DHT22;9266;51.132;17.062;2023-05-07T01:17:47;8.30;99.90
18281;DHT22;9266;51.132;17.062;2023-05-07T01:20:16;8.30;99.90
18281;DHT22;9266;51.132;17.062;2023-05-07T01:22:45;8.30;99.90
18281;DHT22;9266;51.132;17.062;2023-05-07T01:25:13;8.40;99.90
18281;DHT22;9266;51.132;17.062;2023-05-07T01:27:41;8.30;99.90
18281;DHT22;9266;51.132;17.062;2023-05-07T01:30:09;8.20;99.90
18281;DHT22;9266;51.132;17.062;2023-05-07T01:32:40;8.30;99.90
18281;DHT22;9266;51.132;17.062;2023-05-07T01:35:11;8.30;99.90
18281;DHT22;9266;51.132;17.062;2023-05-07T01:37:39;8.20;99.90
18281;DHT22;9266;51.132;17.062;2023-05-07T01:40:09;8.30;99.90
18281;DHT22;9266;51.132;17.062;2023-05-07T01:42:36;8.20;99.90
18281;DHT22;9266;51.132;17.062;2023-05-07T01:45:04;8.20;99.90
18281;DHT22;9266;51.132;17.062;2023-05-07T01:47:32;8.30;99.90
18281;DHT22;9266;51.132;17.062;2023-05-07T01:49:59;8.30;99.90
18281;DHT22;9266;51.132;17.062;2023-05-07T01:52:27;8.30;99.90
18281;DHT22;9266;51.132;17.062;2023-05-07T01:54:54;8.30;99.90
18281;DHT22;9266;51.132;17.062;2023-05-07T01:57:23;8.30;99.90
18281;DHT22;9266;51.132;17.062;2023-05-07T01:59:50;8.30;99.90
18281;DHT22;9266;51.132;17.062;2023-05-07T02:02:17;8.30;99.90
18281;DHT22;9266;51.132;17.062;2023-05-07T02:04:44;8.30;99.90
18281;DHT22;9266;51.132;17.062;2023-05-07T02:07:11;8.30;99.90
18281;DHT22;9266;51.132;17.062;2023-05-07T02:09:38;8.20;99.90
18281;DHT22;9266;51.132;17.062;2023-05-07T02:12:05;8.20;99.90
18281;DHT22;9266;51.132;17.062;2023-05-07T02:14:33;8.20;99.90
18281;DHT22;9266;51.132;17.062;2023-05-07T02:17:00;8.20;99.90
18281;DHT22;9266;51.132;17.062;2023-05-07T02:19:27;8.30;99.90
18281;DHT22;9266;51.132;17.062;2023-05-07T02:21:54;8.30;99.90
18281;DHT22;9266;51.132;17.062;2023-05-07T02:24:21;8.30;99.90
18281;DHT22;9266;51.132;17.062;2023-05-07T02:26:48;8.30;99.90
18281;DHT22;9266;51.132;17.062;2023-05-07T02:29:15;8.30;99.90
18281;DHT22;9266;51.132;17.062;2023-05-07T02:31:43;8.20;99.90
18281;DHT22;9266;51.132;17.062;2023-05-07T02:34:10;8.30;99.90
18281;DHT22;9266;51.132;17.062;2023-05-07T02:36:37;8.30;99.90
18281;DHT22;9266;51.132;17.062;2023-05-07T02:39:04;8.30;99.90
18281;DHT22;9266;51.132;17.062;2023-05-07T02:41:31;8.30;99.90
18281;DHT22;9266;51.132;17.062;2023-05-07T02:43:58;8.30;99.90
18281;DHT22;9266;51.132;17.062;2023-05-07T02:46:25;9.10;99.90
18281;DHT22;9266;51.132;17.062;2023-05-07T02:48:54;8.20;99.90
18281;DHT22;9266;51.132;17.062;2023-05-07T02:51:22;8.20;99.90
18281;DHT22;9266;51.132;17.062;2023-05-07T02:53:49;8.10;99.90
18281;DHT22;9266;51.132;17.062;2023-05-07T02:56:16;8.10;99.90
18281;DHT22;9266;51.132;17.062;2023-05-07T02:58:43;8.10;99.90
18281;DHT22;9266;51.132;17.062;2023-05-07T03:01:10;8.20;99.90
18281;DHT22;9266;51.132;17.062;2023-05-07T03:03:37;8.10;99.90
18281;DHT22;9266;51.132;17.062;2023-05-07T03:06:06;8.20;99.90
18281;DHT22;9266;51.132;17.062;2023-05-07T03:08:33;8.10;99.90
18281;DHT22;9266;51.132;17.062;2023-05-07T03:11:00;8.10;99.90
18281;DHT22;9266;51.132;17.062;2023-05-07T03:13:27;8.20;99.90
18281;DHT22;9266;51.132;17.062;2023-05-07T03:15:54;8.20;99.90
18281;DHT22;9266;51.132;17.062;2023-05-07T03:18:21;8.10;99.90
18281;DHT22;9266;51.132;17.062;2023-05-07T03:20:48;8.10;99.90
18281;DHT22;9266;51.132;17.062;2023-05-07T03:23:16;8.10;99.90
18281;DHT22;9266;51.132;17.062;2023-05-07T03:25:43;8.10;99.90
18281;DHT22;9266;51.132;17.062;2023-05-07T03:28:10;8.10;99.90
18281;DHT22;9266;51.132;17.062;2023-05-07T03:30:37;8.20;99.90
18281;DHT22;9266;51.132;17.062;2023-05-07T03:33:04;8.10;99.90
18281;DHT22;9266;51.132;17.062;2023-05-07T03:35:31;8.10;99.90
18281;DHT22;9266;51.132;17.062;2023-05-07T03:37:58;8.10;99.90
18281;DHT22;9266;51.132;17.062;2023-05-07T03:40:26;8.10;99.90
18281;DHT22;9266;51.132;17.062;2023-05-07T03:42:53;8.10;99.90
18281;DHT22;9266;51.132;17.062;2023-05-07T03:45:20;8.10;99.90
18281;DHT22;9266;51.132;17.062;2023-05-07T03:47:47;8.10;99.90
18281;DHT22;9266;51.132;17.062;2023-05-07T03:50:14;8.10;99.90
18281;DHT22;9266;51.132;17.062;2023-05-07T03:52:41;8.10;99.90
18281;DHT22;9266;51.132;17.062;2023-05-07T03:55:09;8.10;99.90
18281;DHT22;9266;51.132;17.062;2023-05-07T03:57:37;8.10;99.90
18281;DHT22;9266;51.132;17.062;2023-05-07T04:00:05;8.10;99.90
18281;DHT22;9266;51.132;17.062;2023-05-07T04:02:33;8.00;99.90
18281;DHT22;9266;51.132;17.062;2023-05-07T04:05:00;8.10;99.90
18281;DHT22;9266;51.132;17.062;2023-05-07T04:07:27;8.10;99.90
18281;DHT22;9266;51.132;17.062;2023-05-07T04:09:54;8.10;99.90
18281;DHT22;9266;51.132;17.062;2023-05-07T04:12:21;8.10;99.90
18281;DHT22;9266;51.132;17.062;2023-05-07T04:14:49;8.10;99.90
18281;DHT22;9266;51.132;17.062;2023-05-07T04:17:16;8.00;99.90
18281;DHT22;9266;51.132;17.062;2023-05-07T04:19:43;8.00;99.90
18281;DHT22;9266;51.132;17.062;2023-05-07T04:22:11;8.00;99.90
18281;DHT22;9266;51.132;17.062;2023-05-07T04:24:38;8.10;99.90
18281;DHT22;9266;51.132;17.062;2023-05-07T04:27:05;8.10;99.90
18281;DHT22;9266;51.132;17.062;2023-05-07T04:29:33;8.60;99.90
18281;DHT22;9266;51.132;17.062;2023-05-07T04:32:01;8.10;99.90
18281;DHT22;9266;51.132;17.062;2023-05-07T04:34:28;8.10;99.90
18281;DHT22;9266;51.132;17.062;2023-05-07T04:36:58;8.10;99.90
18281;DHT22;9266;51.132;17.062;2023-05-07T04:39:25;8.10;99.90
18281;DHT22;9266;51.132;17.062;2023-05-07T04:41:52;8.20;99.90
18281;DHT22;9266;51.132;17.062;2023-05-07T04:44:19;8.30;99.90
18281;DHT22;9266;51.132;17.062;2023-05-07T04:46:46;8.40;99.90
18281;DHT22;9266;51.132;17.062;2023-05-07T04:49:14;8.50;99.90
18281;DHT22;9266;51.132;17.062;2023-05-07T04:51:41;8.40;99.90
18281;DHT22;9266;51.132;17.062;2023-05-07T04:54:08;8.50;99.90
18281;DHT22;9266;51.132;17.062;2023-05-07T04:56:36;8.50;99.90
18281;DHT22;9266;51.132;17.062;2023-05-07T04:59:03;8.70;99.90
18281;DHT22;9266;51.132;17.062;2023-05-07T05:01:30;8.80;99.90
18281;DHT22;9266;51.132;17.062;2023-05-07T05:03:57;8.80;99.90
18281;DHT22;9266;51.132;17.062;2023-05-07T05:06:27;8.80;99.90
18281;DHT22;9266;51.132;17.062;2023-05-07T05:08:54;8.70;99.90
18281;DHT22;9266;51.132;17.062;2023-05-07T05:11:21;8.60;99.90
18281;DHT22;9266;51.132;17.062;2023-05-07T05:13:48;8.70;99.90
18281;DHT22;9266;51.132;17.062;2023-05-07T05:16:15;8.50;99.90
18281;DHT22;9266;51.132;17.062;2023-05-07T05:18:42;8.50;99.90
18281;DHT22;9266;51.132;17.062;2023-05-07T05:21:09;8.50;99.90
18281;DHT22;9266;51.132;17.062;2023-05-07T05:23:37;8.40;99.90
18281;DHT22;9266;51.132;17.062;2023-05-07T05:26:05;8.30;99.90
18281;DHT22;9266;51.132;17.062;2023-05-07T05:28:32;8.30;99.90
18281;DHT22;9266;51.132;17.062;2023-05-07T05:30:58;8.30;99.90
18281;DHT22;9266;51.132;17.062;2023-05-07T05:33:25;8.40;99.90
18281;DHT22;9266;51.132;17.062;2023-05-07T05:35:53;8.40;99.90
18281;DHT22;9266;51.132;17.062;2023-05-07T05:38:20;8.30;99.90
18281;DHT22;9266;51.132;17.062;2023-05-07T05:40:49;8.30;99.90
18281;DHT22;9266;51.132;17.062;2023-05-07T05:43:16;8.30;99.90
18281;DHT22;9266;51.132;17.062;2023-05-07T05:45:43;8.30;99.90
18281;DHT22;9266;51.132;17.062;2023-05-07T05:48:10;8.30;99.90
18281;DHT22;9266;51.132;17.062;2023-05-07T05:50:37;8.40;99.90
18281;DHT22;9266;51.132;17.062;2023-05-07T05:53:03;8.50;99.90
18281;DHT22;9266;51.132;17.062;2023-05-07T05:55:31;8.60;99.90
18281;DHT22;9266;51.132;17.062;2023-05-07T05:58:00;8.60;99.90
18281;DHT22;9266;51.132;17.062;2023-05-07T06:00:27;8.80;99.90
18281;DHT22;9266;51.132;17.062;2023-05-07T06:02:54;8.90;92.80
18281;DHT22;9266;51.132;17.062;2023-05-07T06:05:21;9.00;78.70
18281;DHT22;9266;51.132;17.062;2023-05-07T06:07:48;9.00;43.70
18281;DHT22;9266;51.132;17.062;2023-05-07T06:10:15;8.90;53.20
18281;DHT22;9266;51.132;17.062;2023-05-07T06:12:42;8.70;75.40
18281;DHT22;9266;51.132;17.062;2023-05-07T06:15:11;8.70;78.90
18281;DHT22;9266;51.132;17.062;2023-05-07T06:17:38;8.90;61.90
18281;DHT22;9266;51.132;17.062;2023-05-07T06:20:06;8.90;14.20
18281;DHT22;9266;51.132;17.062;2023-05-07T06:22:33;8.70;26.50
18281;DHT22;9266;51.132;17.062;2023-05-07T06:25:00;8.80;52.20
18281;DHT22;9266;51.132;17.062;2023-05-07T06:27:27;8.70;53.00
18281;DHT22;9266;51.132;17.062;2023-05-07T06:29:54;8.80;52.60
18281;DHT22;9266;51.132;17.062;2023-05-07T06:32:23;8.10;19.40
18281;DHT22;9266;51.132;17.062;2023-05-07T06:34:50;9.10;1.00
18281;DHT22;9266;51.132;17.062;2023-05-07T06:37:17;9.30;1.00
18281;DHT22;9266;51.132;17.062;2023-05-07T06:39:44;9.30;1.00
18281;DHT22;9266;51.132;17.062;2023-05-07T06:42:11;9.30;1.00
18281;DHT22;9266;51.132;17.062;2023-05-07T06:44:38;9.20;1.00
18281;DHT22;9266;51.132;17.062;2023-05-07T06:47:05;9.00;1.00
18281;DHT22;9266;51.132;17.062;2023-05-07T06:49:33;8.90;1.00
18281;DHT22;9266;51.132;17.062;2023-05-07T06:52:00;8.80;1.00
18281;DHT22;9266;51.132;17.062;2023-05-07T06:54:28;8.80;99.90
18281;DHT22;9266;51.132;17.062;2023-05-07T06:56:55;8.80;1.00
18281;DHT22;9266;51.132;17.062;2023-05-07T06:59:23;8.80;99.90
18281;DHT22;9266;51.132;17.062;2023-05-07T07:01:50;8.70;99.90
18281;DHT22;9266;51.132;17.062;2023-05-07T07:04:17;8.60;99.90
18281;DHT22;9266;51.132;17.062;2023-05-07T07:06:46;8.60;1.00
18281;DHT22;9266;51.132;17.062;2023-05-07T07:09:13;8.70;99.90
18281;DHT22;9266;51.132;17.062;2023-05-07T07:11:40;9.00;1.00
18281;DHT22;9266;51.132;17.062;2023-05-07T07:14:07;9.10;1.00
18281;DHT22;9266;51.132;17.062;2023-05-07T07:16:34;9.30;99.90
18281;DHT22;9266;51.132;17.062;2023-05-07T07:19:01;9.60;99.90
18281;DHT22;9266;51.132;17.062;2023-05-07T07:21:28;9.80;1.00
18281;DHT22;9266;51.132;17.062;2023-05-07T07:23:56;9.70;79.00
18281;DHT22;9266;51.132;17.062;2023-05-07T07:26:23;9.60;4.60
18281;DHT22;9266;51.132;17.062;2023-05-07T07:28:52;9.60;1.00
18281;DHT22;9266;51.132;17.062;2023-05-07T07:31:19;9.50;17.30
18281;DHT22;9266;51.132;17.062;2023-05-07T07:33:46;9.40;1.00
18281;DHT22;9266;51.132;17.062;2023-05-07T07:36:13;9.80;1.00
18281;DHT22;9266;51.132;17.062;2023-05-07T07:38:40;10.20;1.00
18281;DHT22;9266;51.132;17.062;2023-05-07T07:41:09;10.30;1.00
18281;DHT22;9266;51.132;17.062;2023-05-07T07:43:36;10.30;1.00
18281;DHT22;9266;51.132;17.062;2023-05-07T07:46:03;9.90;1.00
18281;DHT22;9266;51.132;17.062;2023-05-07T07:48:30;10.10;99.90
18281;DHT22;9266;51.132;17.062;2023-05-07T07:50:57;9.80;99.90
18281;DHT22;9266;51.132;17.062;2023-05-07T07:53:25;9.60;99.90
18281;DHT22;9266;51.132;17.062;2023-05-07T07:55:52;9.60;1.00
18281;DHT22;9266;51.132;17.062;2023-05-07T07:58:20;9.20;1.00
18281;DHT22;9266;51.132;17.062;2023-05-07T08:00:47;9.20;1.00
18281;DHT22;9266;51.132;17.062;2023-05-07T08:03:14;9.10;1.00
18281;DHT22;9266;51.132;17.062;2023-05-07T08:05:42;9.30;99.90
18281;DHT22;9266;51.132;17.062;2023-05-07T08:08:09;9.30;99.90
18281;DHT22;9266;51.132;17.062;2023-05-07T08:10:36;9.20;1.00
18281;DHT22;9266;51.132;17.062;2023-05-07T08:13:05;9.10;1.00
18281;DHT22;9266;51.132;17.062;2023-05-07T08:15:33;9.20;1.00
18281;DHT22;9266;51.132;17.062;2023-05-07T08:18:01;9.10;1.00
18281;DHT22;9266;51.132;17.062;2023-05-07T08:20:28;9.10;99.90
18281;DHT22;9266;51.132;17.062;2023-05-07T08:22:55;9.10;99.90
18281;DHT22;9266;51.132;17.062;2023-05-07T08:25:23;9.10;1.00
18281;DHT22;9266;51.132;17.062;2023-05-07T08:27:50;9.10;1.00
18281;DHT22;9266;51.132;17.062;2023-05-07T08:30:17;9.20;1.00
18281;DHT22;9266;51.132;17.062;2023-05-07T08:32:45;9.20;1.00
18281;DHT22;9266;51.132;17.062;2023-05-07T08:35:12;9.20;99.90
18281;DHT22;9266;51.132;17.062;2023-05-07T08:37:39;10.30;25.30
18281;DHT22;9266;51.132;17.062;2023-05-07T08:40:07;9.10;99.90
18281;DHT22;9266;51.132;17.062;2023-05-07T08:42:36;7.40;1.00
18281;DHT22;9266;51.132;17.062;2023-05-07T08:45:04;9.00;1.00
18281;DHT22;9266;51.132;17.062;2023-05-07T08:47:42;8.90;1.00
18281;DHT22;9266;51.132;17.062;2023-05-07T08:50:12;8.80;99.90
18281;DHT22;9266;51.132;17.062;2023-05-07T08:52:39;8.70;99.90
18281;DHT22;9266;51.132;17.062;2023-05-07T08:55:08;8.70;99.90
18281;DHT22;9266;51.132;17.062;2023-05-07T08:57:35;7.80;1.00
18281;DHT22;9266;51.132;17.062;2023-05-07T09:00:03;8.70;1.00
18281;DHT22;9266;51.132;17.062;2023-05-07T09:02:33;8.70;1.00
18281;DHT22;9266;51.132;17.062;2023-05-07T09:05:00;8.80;1.00
18281;DHT22;9266;51.132;17.062;2023-05-07T09:07:28;8.90;1.00
18281;DHT22;9266;51.132;17.062;2023-05-07T09:09:56;9.00;1.00
18281;DHT22;9266;51.132;17.062;2023-05-07T09:12:23;9.10;1.00
18281;DHT22;9266;51.132;17.062;2023-05-07T09:14:50;9.20;1.00
18281;DHT22;9266;51.132;17.062;2023-05-07T09:17:17;9.30;1.00
18281;DHT22;9266;51.132;17.062;2023-05-07T09:19:45;9.20;99.90
18281;DHT22;9266;51.132;17.062;2023-05-07T09:22:12;9.40;1.00
18281;DHT22;9266;51.132;17.062;2023-05-07T09:24:47;9.30;1.00
18281;DHT22;9266;51.132;17.062;2023-05-07T09:27:14;9.20;1.00
18281;DHT22;9266;51.132;17.062;2023-05-07T09:29:41;9.10;57.30
18281;DHT22;9266;51.132;17.062;2023-05-07T09:32:10;8.30;99.90
18281;DHT22;9266;51.132;17.062;2023-05-07T09:34:37;9.10;99.90
18281;DHT22;9266;51.132;17.062;2023-05-07T09:37:05;9.30;99.90
18281;DHT22;9266;51.132;17.062;2023-05-07T09:39:40;9.30;99.90
18281;DHT22;9266;51.132;17.062;2023-05-07T09:42:08;9.50;99.90
18281;DHT22;9266;51.132;17.062;2023-05-07T09:44:35;9.90;1.00
18281;DHT22;9266;51.132;17.062;2023-05-07T09:47:05;10.10;99.90
18281;DHT22;9266;51.132;17.062;2023-05-07T09:49:34;10.40;1.00
18281;DHT22;9266;51.132;17.062;2023-05-07T09:52:03;10.70;1.00
18281;DHT22;9266;51.132;17.062;2023-05-07T09:54:32;10.70;1.00
18281;DHT22;9266;51.132;17.062;2023-05-07T09:57:01;10.50;96.40
18281;DHT22;9266;51.132;17.062;2023-05-07T09:59:30;10.60;1.00
18281;DHT22;9266;51.132;17.062;2023-05-07T10:01:59;11.10;1.00
18281;DHT22;9266;51.132;17.062;2023-05-07T10:04:26;11.50;99.90
18281;DHT22;9266;51.132;17.062;2023-05-07T10:06:54;11.70;1.00
18281;DHT22;9266;51.132;17.062;2023-05-07T10:09:22;12.10;1.00
18281;DHT22;9266;51.132;17.062;2023-05-07T10:11:51;12.00;99.90
18281;DHT22;9266;51.132;17.062;2023-05-07T10:14:21;11.50;1.00
18281;DHT22;9266;51.132;17.062;2023-05-07T10:16:48;11.50;1.00
18281;DHT22;9266;51.132;17.062;2023-05-07T10:19:16;11.30;1.00
18281;DHT22;9266;51.132;17.062;2023-05-07T10:21:49;11.40;1.00
18281;DHT22;9266;51.132;17.062;2023-05-07T10:24:22;11.30;1.00
18281;DHT22;9266;51.132;17.062;2023-05-07T10:26:53;11.10;1.00
18281;DHT22;9266;51.132;17.062;2023-05-07T10:29:33;11.30;1.00
18281;DHT22;9266;51.132;17.062;2023-05-07T10:32:18;11.10;1.00
18281;DHT22;9266;51.132;17.062;2023-05-07T10:34:49;11.30;1.00
18281;DHT22;9266;51.132;17.062;2023-05-07T10:37:18;11.10;1.00
18281;DHT22;9266;51.132;17.062;2023-05-07T10:39:45;11.40;1.00
18281;DHT22;9266;51.132;17.062;2023-05-07T10:42:13;11.30;1.00
18281;DHT22;9266;51.132;17.062;2023-05-07T10:44:42;11.30;1.00
18281;DHT22;9266;51.132;17.062;2023-05-07T10:47:10;11.30;1.00
18281;DHT22;9266;51.132;17.062;2023-05-07T10:52:43;11.20;1.00
18281;DHT22;9266;51.132;17.062;2023-05-07T10:55:20;11.30;1.00
18281;DHT22;9266;51.132;17.062;2023-05-07T10:57:50;11.10;1.00
18281;DHT22;9266;51.132;17.062;2023-05-07T11:00:43;10.80;1.00
18281;DHT22;9266;51.132;17.062;2023-05-07T11:03:10;11.00;1.00
18281;DHT22;9266;51.132;17.062;2023-05-07T11:05:38;11.10;1.00
18281;DHT22;9266;51.132;17.062;2023-05-07T11:08:05;11.00;1.00
18281;DHT22;9266;51.132;17.062;2023-05-07T11:10:49;11.00;1.00
18281;DHT22;9266;51.132;17.062;2023-05-07T11:13:17;11.10;1.00
18281;DHT22;9266;51.132;17.062;2023-05-07T11:15:46;10.90;1.00
18281;DHT22;9266;51.132;17.062;2023-05-07T11:18:15;11.10;1.00
18281;DHT22;9266;51.132;17.062;2023-05-07T11:20:53;11.00;1.00
18281;DHT22;9266;51.132;17.062;2023-05-07T11:26:47;10.90;1.00
18281;DHT22;9266;51.132;17.062;2023-05-07T11:29:16;10.60;1.00
18281;DHT22;9266;51.132;17.062;2023-05-07T11:31:48;10.80;99.90
18281;DHT22;9266;51.132;17.062;2023-05-07T11:34:21;11.10;99.90
18281;DHT22;9266;51.132;17.062;2023-05-07T11:36:49;11.50;1.00
18281;DHT22;9266;51.132;17.062;2023-05-07T11:39:29;11.70;1.00
18281;DHT22;9266;51.132;17.062;2023-05-07T11:41:57;11.30;99.90
18281;DHT22;9266;51.132;17.062;2023-05-07T11:44:24;11.10;1.00
18281;DHT22;9266;51.132;17.062;2023-05-07T11:46:52;11.20;1.00
18281;DHT22;9266;51.132;17.062;2023-05-07T11:49:19;11.20;1.00
18281;DHT22;9266;51.132;17.062;2023-05-07T11:51:46;11.00;1.00
18281;DHT22;9266;51.132;17.062;2023-05-07T11:54:16;11.00;1.00
18281;DHT22;9266;51.132;17.062;2023-05-07T11:56:44;11.00;1.00
18281;DHT22;9266;51.132;17.062;2023-05-07T11:59:17;10.70;1.00
18281;DHT22;9266;51.132;17.062;2023-05-07T12:01:46;11.00;1.00
18281;DHT22;9266;51.132;17.062;2023-05-07T12:04:19;11.10;1.00
18281;DHT22;9266;51.132;17.062;2023-05-07T12:06:46;11.50;1.00
18281;DHT22;9266;51.132;17.062;2023-05-07T12:09:14;11.40;99.90
18281;DHT22;9266;51.132;17.062;2023-05-07T12:11:45;11.20;1.00
18281;DHT22;9266;51.132;17.062;2023-05-07T12:14:13;11.00;1.00
18281;DHT22;9266;51.132;17.062;2023-05-07T12:16:41;10.90;1.00
18281;DHT22;9266;51.132;17.062;2023-05-07T12:19:09;11.00;1.00
18281;DHT22;9266;51.132;17.062;2023-05-07T12:21:39;11.00;1.00
18281;DHT22;9266;51.132;17.062;2023-05-07T12:24:08;11.00;99.90
18281;DHT22;9266;51.132;17.062;2023-05-07T12:26:38;11.10;1.00
18281;DHT22;9266;51.132;17.062;2023-05-07T12:29:06;10.90;1.00
18281;DHT22;9266;51.132;17.062;2023-05-07T12:31:33;11.10;1.00
18281;DHT22;9266;51.132;17.062;2023-05-07T12:34:00;11.20;99.90
18281;DHT22;9266;51.132;17.062;2023-05-07T12:36:36;11.00;1.00
18281;DHT22;9266;51.132;17.062;2023-05-07T12:39:06;11.00;1.00
18281;DHT22;9266;51.132;17.062;2023-05-07T12:41:51;10.90;1.00
18281;DHT22;9266;51.132;17.062;2023-05-07T12:44:19;10.70;1.00
18281;DHT22;9266;51.132;17.062;2023-05-07T12:46:46;11.00;1.00
18281;DHT22;9266;51.132;17.062;2023-05-07T12:49:14;11.10;1.00
18281;DHT22;9266;51.132;17.062;2023-05-07T12:51:41;11.00;1.00
18281;DHT22;9266;51.132;17.062;2023-05-07T12:54:09;11.00;99.90
18281;DHT22;9266;51.132;17.062;2023-05-07T12:56:37;11.40;99.90
18281;DHT22;9266;51.132;17.062;2023-05-07T12:59:04;11.20;1.00
18281;DHT22;9266;51.132;17.062;2023-05-07T13:01:33;11.10;1.00
18281;DHT22;9266;51.132;17.062;2023-05-07T13:04:01;10.90;1.00
18281;DHT22;9266;51.132;17.062;2023-05-07T13:06:30;11.00;1.00
18281;DHT22;9266;51.132;17.062;2023-05-07T13:08:57;10.90;1.00
18281;DHT22;9266;51.132;17.062;2023-05-07T13:11:25;11.00;1.00
18281;DHT22;9266;51.132;17.062;2023-05-07T13:13:52;10.90;1.00
18281;DHT22;9266;51.132;17.062;2023-05-07T13:16:19;11.10;1.00
18281;DHT22;9266;51.132;17.062;2023-05-07T13:18:46;11.30;99.90
18281;DHT22;9266;51.132;17.062;2023-05-07T13:21:13;11.20;1.00
18281;DHT22;9266;51.132;17.062;2023-05-07T13:23:40;11.20;1.00
18281;DHT22;9266;51.132;17.062;2023-05-07T13:26:07;10.90;1.00
18281;DHT22;9266;51.132;17.062;2023-05-07T13:28:36;10.70;1.00
18281;DHT22;9266;51.132;17.062;2023-05-07T13:31:03;10.70;1.00
18281;DHT22;9266;51.132;17.062;2023-05-07T13:33:30;10.70;1.00
18281;DHT22;9266;51.132;17.062;2023-05-07T13:35:57;10.70;1.00
18281;DHT22;9266;51.132;17.062;2023-05-07T13:38:26;10.80;1.00
18281;DHT22;9266;51.132;17.062;2023-05-07T13:40:53;11.10;1.00
18281;DHT22;9266;51.132;17.062;2023-05-07T13:43:20;11.10;99.90
18281;DHT22;9266;51.132;17.062;2023-05-07T13:45:48;11.00;1.00
18281;DHT22;9266;51.132;17.062;2023-05-07T13:48:15;10.90;1.00
18281;DHT22;9266;51.132;17.062;2023-05-07T13:50:42;10.80;99.90
18281;DHT22;9266;51.132;17.062;2023-05-07T13:53:09;10.80;1.00
18281;DHT22;9266;51.132;17.062;2023-05-07T13:55:36;10.60;1.00
18281;DHT22;9266;51.132;17.062;2023-05-07T13:58:05;10.60;99.90
18281;DHT22;9266;51.132;17.062;2023-05-07T14:00:32;10.70;99.90
18281;DHT22;9266;51.132;17.062;2023-05-07T14:03:00;10.80;99.90
18281;DHT22;9266;51.132;17.062;2023-05-07T14:05:27;10.60;99.90
18281;DHT22;9266;51.132;17.062;2023-05-07T14:07:56;10.60;99.90
18281;DHT22;9266;51.132;17.062;2023-05-07T14:10:24;10.60;99.90
18281;DHT22;9266;51.132;17.062;2023-05-07T14:12:51;10.50;1.00
18281;DHT22;9266;51.132;17.062;2023-05-07T14:15:19;10.50;1.00
18281;DHT22;9266;51.132;17.062;2023-05-07T14:17:46;10.50;1.00
18281;DHT22;9266;51.132;17.062;2023-05-07T14:20:15;10.40;1.00
18281;DHT22;9266;51.132;17.062;2023-05-07T14:22:42;10.40;1.00
18281;DHT22;9266;51.132;17.062;2023-05-07T14:25:09;10.30;1.00
18281;DHT22;9266;51.132;17.062;2023-05-07T14:27:37;10.30;1.00
18281;DHT22;9266;51.132;17.062;2023-05-07T14:30:04;10.30;1.00
18281;DHT22;9266;51.132;17.062;2023-05-07T14:32:32;10.40;1.00
18281;DHT22;9266;51.132;17.062;2023-05-07T14:34:59;10.40;1.00
18281;DHT22;9266;51.132;17.062;2023-05-07T14:37:28;10.60;1.00
18281;DHT22;9266;51.132;17.062;2023-05-07T14:39:56;10.80;1.00
18281;DHT22;9266;51.132;17.062;2023-05-07T14:42:23;10.80;1.00
18281;DHT22;9266;51.132;17.062;2023-05-07T14:44:50;11.00;1.00
18281;DHT22;9266;51.132;17.062;2023-05-07T14:47:18;11.10;99.90
18281;DHT22;9266;51.132;17.062;2023-05-07T14:49:45;10.90;99.90
18281;DHT22;9266;51.132;17.062;2023-05-07T14:52:12;10.70;99.90
18281;DHT22;9266;51.132;17.062;2023-05-07T14:54:40;10.70;99.90
18281;DHT22;9266;51.132;17.062;2023-05-07T14:57:09;10.70;99.90
18281;DHT22;9266;51.132;17.062;2023-05-07T14:59:39;10.70;99.90
18281;DHT22;9266;51.132;17.062;2023-05-07T15:02:07;10.70;99.90
18281;DHT22;9266;51.132;17.062;2023-05-07T15:04:34;10.60;99.90
18281;DHT22;9266;51.132;17.062;2023-05-07T15:07:01;10.60;99.90
18281;DHT22;9266;51.132;17.062;2023-05-07T15:09:29;10.60;99.90
18281;DHT22;9266;51.132;17.062;2023-05-07T15:11:58;10.60;99.90
18281;DHT22;9266;51.132;17.062;2023-05-07T15:14:25;10.70;1.00
18281;DHT22;9266;51.132;17.062;2023-05-07T15:16:52;10.70;99.90
18281;DHT22;9266;51.132;17.062;2023-05-07T15:19:19;10.70;1.00
18281;DHT22;9266;51.132;17.062;2023-05-07T15:21:48;10.80;1.00
18281;DHT22;9266;51.132;17.062;2023-05-07T15:24:14;11.00;1.00
18281;DHT22;9266;51.132;17.062;2023-05-07T15:26:42;11.10;99.90
18281;DHT22;9266;51.132;17.062;2023-05-07T15:29:10;11.10;99.90
18281;DHT22;9266;51.132;17.062;2023-05-07T15:31:37;11.10;99.90
18281;DHT22;9266;51.132;17.062;2023-05-07T15:34:04;10.90;99.90
18281;DHT22;9266;51.132;17.062;2023-05-07T15:36:31;10.90;99.90
18281;DHT22;9266;51.132;17.062;2023-05-07T15:38:58;10.80;99.90
18281;DHT22;9266;51.132;17.062;2023-05-07T15:41:27;10.70;1.00
18281;DHT22;9266;51.132;17.062;2023-05-07T15:43:54;10.70;1.00
18281;DHT22;9266;51.132;17.062;2023-05-07T15:46:25;10.60;1.00
18281;DHT22;9266;51.132;17.062;2023-05-07T15:48:53;10.30;1.00
18281;DHT22;9266;51.132;17.062;2023-05-07T15:51:21;10.40;1.00
18281;DHT22;9266;51.132;17.062;2023-05-07T15:53:48;10.30;1.00
18281;DHT22;9266;51.132;17.062;2023-05-07T15:56:16;10.40;1.00
18281;DHT22;9266;51.132;17.062;2023-05-07T15:58:43;10.50;1.00